createdAt,value
2022-09-03T00:01:01.675Z,9.10
2022-09-03T00:03:33.195Z,9.10
2022-09-03T00:06:07.620Z,9.10
2022-09-03T00:08:39.032Z,9.10
2022-09-03T00:11:13.429Z,9.00
2022-09-03T00:13:45.110Z,9.00
2022-09-03T00:16:19.309Z,9.00
2022-09-03T00:18:50.403Z,8.90
2022-09-03T00:21:22.457Z,8.90
2022-09-03T00:23:51.706Z,8.90
2022-09-03T00:26:25.723Z,8.90
2022-09-03T00:28:59.147Z,8.80
2022-09-03T00:31:33.133Z,8.80
2022-09-03T00:34:04.263Z,8.70
2022-09-03T00:36:35.153Z,8.80
2022-09-03T00:39:04.102Z,8.80
2022-09-03T00:41:37.857Z,8.80
2022-09-03T00:44:14.362Z,8.80
2022-09-03T00:46:48.281Z,8.90
2022-09-03T00:49:29.150Z,8.90
2022-09-03T00:52:04.231Z,8.80
2022-09-03T00:54:38.491Z,8.80
2022-09-03T00:57:14.107Z,8.90
2022-09-03T00:59:46.160Z,8.80
2022-09-03T01:02:19.042Z,8.90
2022-09-03T01:04:52.834Z,8.90
2022-09-03T01:07:27.730Z,8.90
2022-09-03T01:10:06.046Z,8.90
2022-09-03T01:12:39.849Z,9.00
2022-09-03T01:15:11.708Z,9.00
2022-09-03T01:17:53.194Z,9.00
2022-09-03T01:20:27.315Z,8.90
2022-09-03T01:23:15.154Z,8.80
2022-09-03T01:25:50.979Z,8.80
2022-09-03T01:28:38.438Z,8.80
2022-09-03T01:31:15.261Z,8.70
2022-09-03T01:33:48.764Z,8.70
2022-09-03T01:36:23.482Z,8.60
2022-09-03T01:38:54.678Z,8.50
2022-09-03T01:41:46.417Z,8.50
2022-09-03T01:44:20.974Z,8.50
2022-09-03T01:46:51.905Z,8.40
2022-09-03T01:49:25.241Z,8.30
2022-09-03T01:51:59.650Z,6.60
2022-09-03T01:54:36.153Z,8.20
2022-09-03T01:57:36.878Z,8.20
2022-09-03T02:00:09.725Z,8.10
2022-09-03T02:02:43.551Z,8.00
2022-09-03T02:05:14.845Z,8.10
2022-09-03T02:07:45.070Z,8.10
2022-09-03T02:10:15.994Z,8.00
2022-09-03T02:12:47.502Z,8.00
2022-09-03T02:15:18.544Z,8.00
2022-09-03T02:17:48.924Z,8.10
2022-09-03T02:20:20.215Z,8.00
2022-09-03T02:22:49.134Z,8.10
2022-09-03T02:25:18.129Z,8.20
2022-09-03T02:27:47.212Z,8.20
2022-09-03T02:30:17.371Z,8.30
2022-09-03T02:32:45.985Z,8.40
2022-09-03T02:35:14.602Z,8.50
2022-09-03T02:37:43.206Z,8.50
2022-09-03T02:40:12.118Z,8.50
2022-09-03T02:42:40.757Z,8.50
2022-09-03T02:45:14.750Z,8.60
2022-09-03T02:47:46.171Z,8.60
2022-09-03T02:50:14.896Z,8.70
2022-09-03T02:52:43.408Z,8.70
2022-09-03T02:55:12.094Z,8.70
2022-09-03T02:57:40.814Z,8.80
2022-09-03T03:00:10.229Z,8.80
2022-09-03T03:02:39.127Z,8.80
2022-09-03T03:05:10.937Z,8.70
2022-09-03T03:07:42.085Z,8.60
2022-09-03T03:10:10.935Z,8.60
2022-09-03T03:12:40.155Z,8.60
2022-09-03T03:15:09.113Z,8.60
2022-09-03T03:17:37.832Z,8.60
2022-09-03T03:20:06.743Z,8.60
2022-09-03T03:22:37.620Z,8.60
2022-09-03T03:25:06.580Z,8.60
2022-09-03T03:27:36.092Z,8.60
2022-09-03T03:30:10.242Z,8.70
2022-09-03T03:32:39.115Z,8.80
2022-09-03T03:35:08.292Z,8.80
2022-09-03T03:37:38.276Z,8.90
2022-09-03T03:40:07.599Z,8.80
2022-09-03T03:42:36.287Z,8.80
2022-09-03T03:45:05.118Z,8.80
2022-09-03T03:47:34.602Z,8.70
2022-09-03T03:50:03.292Z,8.60
2022-09-03T03:52:31.902Z,8.50
2022-09-03T03:55:01.816Z,8.40
2022-09-03T03:57:31.923Z,8.30
2022-09-03T04:00:00.538Z,8.20
2022-09-03T04:02:29.111Z,8.20
2022-09-03T04:04:57.785Z,8.10
2022-09-03T04:07:27.779Z,8.00
2022-09-03T04:09:56.329Z,8.00
2022-09-03T04:12:27.886Z,8.00
2022-09-03T04:14:56.583Z,8.00
2022-09-03T04:17:25.552Z,8.00
2022-09-03T04:19:54.246Z,8.10
2022-09-03T04:22:22.871Z,8.10
2022-09-03T04:24:51.462Z,8.00
2022-09-03T04:27:19.961Z,8.00
2022-09-03T04:29:49.952Z,8.10
2022-09-03T04:32:35.976Z,8.10
2022-09-03T04:35:05.556Z,8.20
2022-09-03T04:37:34.431Z,8.20
2022-09-03T04:40:03.072Z,8.20
2022-09-03T04:42:31.700Z,8.20
2022-09-03T04:45:01.712Z,8.30
2022-09-03T04:47:30.368Z,8.30
2022-09-03T04:49:59.138Z,8.30
2022-09-03T04:52:31.444Z,8.40
2022-09-03T04:55:00.125Z,8.60
2022-09-03T04:57:34.457Z,8.20
2022-09-03T05:00:04.700Z,8.80
2022-09-03T05:02:33.318Z,8.90
2022-09-03T05:05:02.025Z,8.90
2022-09-03T05:07:38.763Z,9.00
2022-09-03T05:10:08.495Z,9.10
2022-09-03T05:12:37.019Z,9.20
2022-09-03T05:15:07.547Z,9.30
2022-09-03T05:17:38.725Z,9.40
2022-09-03T05:20:09.057Z,9.50
2022-09-03T05:22:37.706Z,9.60
2022-09-03T05:25:06.626Z,9.70
2022-09-03T05:27:35.606Z,9.80
2022-09-03T05:30:04.388Z,9.90
2022-09-03T05:32:34.857Z,9.90
2022-09-03T05:35:03.722Z,9.90
2022-09-03T05:37:32.642Z,10.00
2022-09-03T05:40:01.329Z,10.00
2022-09-03T05:42:31.231Z,10.10
2022-09-03T05:45:00.474Z,10.10
2022-09-03T05:47:29.035Z,10.20
2022-09-03T05:49:59.099Z,10.20
2022-09-03T05:52:28.071Z,10.30
2022-09-03T05:54:56.748Z,10.30
2022-09-03T05:57:25.652Z,10.40
2022-09-03T05:59:54.319Z,10.50
2022-09-03T06:02:23.331Z,10.60
2022-09-03T06:04:52.216Z,10.70
2022-09-03T06:07:22.500Z,10.70
2022-09-03T06:09:51.194Z,10.80
2022-09-03T06:12:19.930Z,11.00
2022-09-03T06:14:48.724Z,11.10
2022-09-03T06:17:17.408Z,11.20
2022-09-03T06:19:45.999Z,11.30
2022-09-03T06:22:14.943Z,11.30
2022-09-03T06:24:44.831Z,11.50
2022-09-03T06:27:13.577Z,11.60
2022-09-03T06:29:43.180Z,11.60
2022-09-03T06:32:11.864Z,11.80
2022-09-03T06:34:40.662Z,11.90
2022-09-03T06:37:09.404Z,12.10
2022-09-03T06:39:38.036Z,12.20
2022-09-03T06:42:09.048Z,12.30
2022-09-03T06:44:38.805Z,12.50
2022-09-03T06:47:07.481Z,12.60
2022-09-03T06:49:36.284Z,12.70
2022-09-03T06:52:04.774Z,12.80
2022-09-03T06:54:33.443Z,12.90
2022-09-03T06:57:02.242Z,13.00
2022-09-03T06:59:33.349Z,13.20
2022-09-03T07:02:03.984Z,13.40
2022-09-03T07:04:34.816Z,13.50
2022-09-03T07:07:04.464Z,13.60
2022-09-03T07:09:36.261Z,13.80
2022-09-03T07:12:05.042Z,13.90
2022-09-03T07:14:35.171Z,14.00
2022-09-03T07:17:03.902Z,14.20
2022-09-03T07:19:32.781Z,14.30
2022-09-03T07:22:01.772Z,14.40
2022-09-03T07:24:30.490Z,14.50
2022-09-03T07:26:59.096Z,14.70
2022-09-03T07:29:28.130Z,14.70
2022-09-03T07:31:58.326Z,14.80
2022-09-03T07:34:27.182Z,14.90
2022-09-03T07:36:55.952Z,15.00
2022-09-03T07:39:24.690Z,15.10
2022-09-03T07:41:53.840Z,15.20
2022-09-03T07:44:24.516Z,15.30
2022-09-03T07:46:53.234Z,15.40
2022-09-03T07:49:23.371Z,15.60
2022-09-03T07:51:54.646Z,15.70
2022-09-03T07:54:26.323Z,15.80
2022-09-03T07:56:55.539Z,15.90
2022-09-03T07:59:26.070Z,16.00
2022-09-03T08:01:54.861Z,16.10
2022-09-03T08:04:25.945Z,16.30
2022-09-03T08:06:57.080Z,16.40
2022-09-03T08:09:26.891Z,16.40
2022-09-03T08:11:55.607Z,16.50
2022-09-03T08:14:24.247Z,16.70
2022-09-03T08:16:52.882Z,16.70
2022-09-03T08:19:22.900Z,16.70
2022-09-03T08:21:53.577Z,16.70
2022-09-03T08:24:26.402Z,16.80
2022-09-03T08:26:58.029Z,19.00
2022-09-03T08:29:27.267Z,16.80
2022-09-03T08:31:55.975Z,16.90
2022-09-03T08:34:25.051Z,17.00
2022-09-03T08:36:55.065Z,17.10
2022-09-03T08:39:25.942Z,17.20
2022-09-03T08:42:14.798Z,17.30
2022-09-03T08:44:47.415Z,17.40
2022-09-03T08:47:19.812Z,17.40
2022-09-03T08:49:51.306Z,17.50
2022-09-03T08:52:25.461Z,17.60
2022-09-03T08:54:58.401Z,17.70
2022-09-03T08:57:27.165Z,17.70
2022-09-03T08:59:56.731Z,17.70
2022-09-03T09:02:32.857Z,17.80
2022-09-03T09:05:07.682Z,17.90
2022-09-03T09:07:44.127Z,18.10
2022-09-03T09:10:15.274Z,18.20
2022-09-03T09:12:48.076Z,18.10
2022-09-03T09:15:20.980Z,18.20
2022-09-03T09:17:58.387Z,18.20
2022-09-03T09:20:33.885Z,18.30
2022-09-03T09:23:05.905Z,18.40
2022-09-03T09:25:39.712Z,18.40
2022-09-03T09:28:14.991Z,18.40
2022-09-03T09:30:44.185Z,18.50
2022-09-03T09:33:13.225Z,18.60
2022-09-03T09:35:43.144Z,18.70
2022-09-03T09:38:13.467Z,18.80
2022-09-03T09:40:45.899Z,19.00
2022-09-03T09:43:16.184Z,19.10
2022-09-03T09:45:45.869Z,19.10
2022-09-03T09:48:19.975Z,19.10
2022-09-03T09:50:48.983Z,19.20
2022-09-03T09:53:21.767Z,19.30
2022-09-03T09:55:51.743Z,19.30
2022-09-03T09:58:21.477Z,19.20
2022-09-03T10:01:02.623Z,19.10
2022-09-03T10:03:35.745Z,19.20
2022-09-03T10:06:27.332Z,19.30
2022-09-03T10:09:08.299Z,19.40
2022-09-03T10:11:38.887Z,19.60
2022-09-03T10:14:11.554Z,19.60
2022-09-03T10:16:48.970Z,19.70
2022-09-03T10:19:18.610Z,19.70
2022-09-03T10:21:52.232Z,19.80
2022-09-03T10:24:30.114Z,19.80
2022-09-03T10:26:59.354Z,20.00
2022-09-03T10:29:30.154Z,20.30
2022-09-03T10:32:10.141Z,20.30
2022-09-03T10:34:42.896Z,20.30
2022-09-03T10:37:19.724Z,20.20
2022-09-03T10:40:07.666Z,20.20
2022-09-03T10:42:41.122Z,20.30
2022-09-03T10:45:14.457Z,20.40
2022-09-03T10:48:02.233Z,20.60
2022-09-03T10:50:34.112Z,20.80
2022-09-03T10:53:12.111Z,20.90
2022-09-03T10:55:48.106Z,20.90
2022-09-03T10:58:27.372Z,20.90
2022-09-03T11:01:01.208Z,20.90
2022-09-03T11:03:45.125Z,20.90
2022-09-03T11:06:16.788Z,21.10
2022-09-03T11:08:47.913Z,21.20
2022-09-03T11:11:20.629Z,21.20
2022-09-03T11:13:54.131Z,21.20
2022-09-03T11:16:26.947Z,21.20
2022-09-03T11:18:59.089Z,21.10
2022-09-03T11:21:28.683Z,21.20
2022-09-03T11:24:07.629Z,21.20
2022-09-03T11:26:39.617Z,21.10
2022-09-03T11:29:11.189Z,20.80
2022-09-03T11:31:48.120Z,20.60
2022-09-03T11:34:23.436Z,20.60
2022-09-03T11:37:08.158Z,20.50
2022-09-03T11:39:38.054Z,20.60
2022-09-03T11:42:12.558Z,20.90
2022-09-03T11:44:51.472Z,21.20
2022-09-03T11:47:23.366Z,21.50
2022-09-03T11:49:52.932Z,21.70
2022-09-03T11:52:28.765Z,22.10
2022-09-03T11:54:57.726Z,22.40
2022-09-03T11:57:29.911Z,22.50
2022-09-03T12:00:10.828Z,22.40
2022-09-03T12:02:45.200Z,22.20
2022-09-03T12:05:19.599Z,22.00
2022-09-03T12:08:05.389Z,22.00
2022-09-03T12:10:41.847Z,22.00
2022-09-03T12:13:19.714Z,22.20
2022-09-03T12:15:55.711Z,22.20
2022-09-03T12:18:25.147Z,22.20
2022-09-03T12:21:08.538Z,22.10
2022-09-03T12:23:42.177Z,21.70
2022-09-03T12:26:15.399Z,21.50
2022-09-03T12:28:46.882Z,21.70
2022-09-03T12:31:21.713Z,21.80
2022-09-03T12:33:51.566Z,22.00
2022-09-03T12:36:20.657Z,22.20
2022-09-03T12:39:10.828Z,22.60
2022-09-03T12:41:38.531Z,22.60
2022-09-03T12:44:11.684Z,22.90
2022-09-03T12:46:40.243Z,23.00
2022-09-03T12:52:05.781Z,23.20
2022-09-03T12:54:35.984Z,23.30
2022-09-03T12:57:04.990Z,23.20
2022-09-03T12:59:37.008Z,23.20
2022-09-03T13:02:13.291Z,23.20
2022-09-03T13:07:14.167Z,22.90
2022-09-03T13:09:43.321Z,22.80
2022-09-03T13:12:22.277Z,22.30
2022-09-03T13:14:52.726Z,22.10
2022-09-03T13:17:30.577Z,21.80
2022-09-03T13:20:12.913Z,21.70
2022-09-03T13:22:47.501Z,21.60
2022-09-03T13:25:21.627Z,21.60
2022-09-03T13:27:56.271Z,21.60
2022-09-03T13:30:32.486Z,21.70
2022-09-03T13:33:02.665Z,21.70
2022-09-03T13:35:34.769Z,21.50
2022-09-03T13:38:09.095Z,21.50
2022-09-03T13:40:42.687Z,21.40
2022-09-03T13:43:21.423Z,21.30
2022-09-03T13:45:53.017Z,21.00
2022-09-03T13:48:43.033Z,20.90
2022-09-03T13:51:14.115Z,20.80
2022-09-03T13:53:48.107Z,20.90
2022-09-03T13:56:27.475Z,21.10
2022-09-03T13:58:59.586Z,21.10
2022-09-03T14:01:38.936Z,21.20
2022-09-03T14:04:14.031Z,21.30
2022-09-03T14:06:47.111Z,21.40
2022-09-03T14:09:21.157Z,21.50
2022-09-03T14:11:54.678Z,21.60
2022-09-03T14:14:32.543Z,21.60
2022-09-03T14:17:05.139Z,21.60
2022-09-03T14:19:38.661Z,21.70
2022-09-03T14:22:09.884Z,21.60
2022-09-03T14:24:45.351Z,21.60
2022-09-03T14:27:14.171Z,21.50
2022-09-03T14:29:51.964Z,21.60
2022-09-03T14:32:29.023Z,21.60
2022-09-03T14:35:09.485Z,21.90
2022-09-03T14:37:47.866Z,21.60
2022-09-03T14:40:18.766Z,21.60
2022-09-03T14:42:54.410Z,21.50
2022-09-03T14:45:28.751Z,21.40
2022-09-03T14:48:09.695Z,21.40
2022-09-03T14:50:45.316Z,21.30
2022-09-03T14:53:28.788Z,21.30
2022-09-03T14:56:16.254Z,21.10
2022-09-03T14:59:01.841Z,21.10
2022-09-03T15:01:38.841Z,21.00
2022-09-03T15:04:23.161Z,21.00
2022-09-03T15:07:02.329Z,20.90
2022-09-03T15:09:34.149Z,20.90
2022-09-03T15:12:07.633Z,20.80
2022-09-03T15:14:39.928Z,20.70
2022-09-03T15:17:21.368Z,20.60
2022-09-03T15:19:57.498Z,20.70
2022-09-03T15:22:37.978Z,20.70
2022-09-03T15:25:12.649Z,20.80
2022-09-03T15:27:49.890Z,20.90
2022-09-03T15:30:20.266Z,21.10
2022-09-03T15:32:59.653Z,21.40
2022-09-03T15:35:35.698Z,21.90
2022-09-03T15:38:08.676Z,22.40
2022-09-03T15:48:09.002Z,23.10
2022-09-03T15:53:17.115Z,23.00
2022-09-03T15:55:46.701Z,22.90
2022-09-03T15:58:22.177Z,22.70
2022-09-03T16:00:53.423Z,22.40
2022-09-03T16:03:24.642Z,21.90
2022-09-03T16:05:56.638Z,21.80
2022-09-03T16:08:30.992Z,21.50
2022-09-03T16:11:04.938Z,21.30
2022-09-03T16:13:57.718Z,21.10
2022-09-03T16:16:31.035Z,20.90
2022-09-03T16:19:03.448Z,20.70
2022-09-03T16:21:34.778Z,21.00
2022-09-03T16:24:06.814Z,20.80
2022-09-03T16:26:37.185Z,21.20
2022-09-03T16:29:08.882Z,20.70
2022-09-03T16:31:44.869Z,20.10
2022-09-03T16:34:19.044Z,19.80
2022-09-03T16:36:52.161Z,19.50
2022-09-03T16:39:27.454Z,19.10
2022-09-03T16:42:02.964Z,18.90
2022-09-03T16:44:35.010Z,18.60
2022-09-03T16:47:09.022Z,18.40
2022-09-03T16:49:42.466Z,18.10
2022-09-03T16:52:16.251Z,17.90
2022-09-03T16:54:56.047Z,17.60
2022-09-03T16:57:32.826Z,17.50
2022-09-03T17:00:08.084Z,17.30
2022-09-03T17:02:51.916Z,17.00
2022-09-03T17:05:38.330Z,16.80
2022-09-03T17:08:28.676Z,16.60
2022-09-03T17:11:04.658Z,16.30
2022-09-03T17:13:43.277Z,16.10
2022-09-03T17:16:24.642Z,15.90
2022-09-03T17:18:59.041Z,15.70
2022-09-03T17:21:40.882Z,15.50
2022-09-03T17:24:27.524Z,15.50
2022-09-03T17:27:15.847Z,15.30
2022-09-03T17:29:58.127Z,15.20
2022-09-03T17:32:32.265Z,15.00
2022-09-03T17:35:12.095Z,14.90
2022-09-03T17:37:51.117Z,14.80
2022-09-03T17:40:25.663Z,14.70
2022-09-03T17:43:00.518Z,13.30
2022-09-03T17:45:38.032Z,14.60
2022-09-03T17:48:21.927Z,14.60
2022-09-03T17:50:53.383Z,14.50
2022-09-03T17:53:26.137Z,14.40
2022-09-03T17:55:57.391Z,14.40
2022-09-03T17:58:31.490Z,14.30
2022-09-03T18:01:04.336Z,14.20
2022-09-03T18:03:37.449Z,14.10
2022-09-03T18:06:11.506Z,14.10
2022-09-03T18:08:48.729Z,14.00
2022-09-03T18:11:20.547Z,13.90
2022-09-03T18:13:55.815Z,13.80
2022-09-03T18:16:29.651Z,13.70
2022-09-03T18:19:03.964Z,13.70
2022-09-03T18:21:55.782Z,13.60
2022-09-03T18:24:50.887Z,13.50
2022-09-03T18:27:46.928Z,13.40
2022-09-03T18:30:36.514Z,13.10
2022-09-03T18:33:22.941Z,13.00
2022-09-03T18:36:10.014Z,12.80
2022-09-03T18:38:57.461Z,12.60
2022-09-03T18:41:52.931Z,12.60
2022-09-03T18:44:46.171Z,12.50
2022-09-03T18:50:53.056Z,12.30
2022-09-03T18:53:46.180Z,12.30
2022-09-03T18:56:34.281Z,12.20
2022-09-03T18:59:28.119Z,12.10
2022-09-03T19:02:14.823Z,12.00
2022-09-03T19:05:09.801Z,11.90
2022-09-03T19:08:01.929Z,11.80
2022-09-03T19:10:52.399Z,11.80
2022-09-03T19:13:46.764Z,11.80
2022-09-03T19:16:37.769Z,11.70
2022-09-03T19:19:42.724Z,11.70
2022-09-03T19:22:31.361Z,11.60
2022-09-03T19:25:19.812Z,11.50
2022-09-03T19:28:10.447Z,11.50
2022-09-03T19:31:05.731Z,11.50
2022-09-03T19:33:55.232Z,11.50
2022-09-03T19:36:45.943Z,11.50
2022-09-03T19:39:39.505Z,11.50
2022-09-03T19:42:29.496Z,11.50
2022-09-03T19:45:20.824Z,11.40
2022-09-03T19:48:14.811Z,11.40
2022-09-03T19:51:04.015Z,11.30
2022-09-03T19:53:51.259Z,11.40
2022-09-03T19:56:41.885Z,11.40
2022-09-03T19:59:31.247Z,11.40
2022-09-03T20:02:18.144Z,11.30
2022-09-03T20:05:06.498Z,11.20
2022-09-03T20:07:52.442Z,11.10
2022-09-03T20:10:23.847Z,11.10
2022-09-03T20:13:04.345Z,11.10
2022-09-03T20:15:38.874Z,11.10
2022-09-03T20:18:14.065Z,11.00
2022-09-03T20:20:45.938Z,11.00
2022-09-03T20:23:21.032Z,11.00
2022-09-03T20:25:54.634Z,11.00
2022-09-03T20:28:32.309Z,10.90
2022-09-03T20:31:03.417Z,10.90
2022-09-03T20:33:36.937Z,10.80
2022-09-03T20:36:11.645Z,10.90
2022-09-03T20:38:59.067Z,10.90
2022-09-03T20:41:34.408Z,11.00
2022-09-03T20:44:16.850Z,11.00
2022-09-03T20:46:58.205Z,11.20
2022-09-03T20:49:35.508Z,11.40
2022-09-03T20:52:07.572Z,11.60
2022-09-03T20:54:38.349Z,11.80
2022-09-03T20:57:18.843Z,11.90
2022-09-03T20:59:57.158Z,11.90
2022-09-03T21:02:30.669Z,12.00
2022-09-03T21:05:06.448Z,12.00
2022-09-03T21:07:46.235Z,12.00
2022-09-03T21:10:25.189Z,11.90
2022-09-03T21:12:59.696Z,11.80
2022-09-03T21:15:36.481Z,11.70
2022-09-03T21:18:08.836Z,11.60
2022-09-03T21:20:42.045Z,11.50
2022-09-03T21:23:17.056Z,11.40
2022-09-03T21:25:49.572Z,11.40
2022-09-03T21:28:24.557Z,11.30
2022-09-03T21:30:57.153Z,11.20
2022-09-03T21:33:30.513Z,11.20
2022-09-03T21:36:07.080Z,11.20
2022-09-03T21:38:41.703Z,11.10
2022-09-03T21:41:16.773Z,11.10
2022-09-03T21:43:48.594Z,11.10
2022-09-03T21:46:21.945Z,11.10
2022-09-03T21:48:52.752Z,11.00
2022-09-03T21:51:24.194Z,11.00
2022-09-03T21:53:57.187Z,11.00
2022-09-03T21:56:36.413Z,11.00
2022-09-03T21:59:09.476Z,11.00
2022-09-03T22:01:46.046Z,11.00
2022-09-03T22:04:15.836Z,10.90
2022-09-03T22:06:48.073Z,10.90
2022-09-03T22:09:19.976Z,10.90
2022-09-03T22:11:51.401Z,10.90
2022-09-03T22:14:21.294Z,10.80
2022-09-03T22:16:55.360Z,10.70
2022-09-03T22:19:24.374Z,10.80
2022-09-03T22:21:59.300Z,10.60
2022-09-03T22:24:34.561Z,10.50
2022-09-03T22:27:05.416Z,10.40
2022-09-03T22:29:39.769Z,10.40
2022-09-03T22:32:21.909Z,10.30
2022-09-03T22:35:06.762Z,10.30
2022-09-03T22:37:43.514Z,10.20
2022-09-03T22:40:19.192Z,10.10
2022-09-03T22:43:02.889Z,10.00
2022-09-03T22:45:40.440Z,9.90
2022-09-03T22:48:15.926Z,9.90
2022-09-03T22:50:52.163Z,9.90
2022-09-03T22:53:25.204Z,9.80
2022-09-03T22:55:58.284Z,9.70
2022-09-03T22:58:29.564Z,9.70
2022-09-03T23:01:02.377Z,9.60
2022-09-03T23:03:37.079Z,9.60
2022-09-03T23:06:08.215Z,9.60
2022-09-03T23:08:41.037Z,9.60
2022-09-03T23:11:13.670Z,9.50
2022-09-03T23:13:44.020Z,9.40
2022-09-03T23:16:14.732Z,9.30
2022-09-03T23:18:46.994Z,9.30
2022-09-03T23:21:22.278Z,9.10
2022-09-03T23:23:54.053Z,9.10
2022-09-03T23:26:25.341Z,9.10
2022-09-03T23:28:58.553Z,9.00
2022-09-03T23:31:28.789Z,9.00
2022-09-03T23:33:59.195Z,9.00
2022-09-03T23:36:57.765Z,8.90
2022-09-03T23:39:30.273Z,8.90
2022-09-03T23:42:06.320Z,8.90
2022-09-03T23:44:41.436Z,8.80
2022-09-03T23:47:18.405Z,8.90
2022-09-03T23:49:54.438Z,8.90
2022-09-03T23:52:38.295Z,9.00
2022-09-03T23:55:12.064Z,9.00
2022-09-03T23:57:41.743Z,9.00
